createdAt,value
2023-09-05T00:03:08.530Z,19.50
2023-09-05T00:08:13.025Z,19.40
2023-09-05T00:13:18.522Z,19.40
2023-09-05T00:18:22.601Z,19.30
2023-09-05T00:23:27.871Z,19.30
2023-09-05T00:28:34.408Z,19.30
2023-09-05T00:33:38.499Z,19.20
2023-09-05T00:38:43.441Z,19.20
2023-09-05T00:43:50.495Z,19.10
2023-09-05T00:48:58.247Z,19.10
2023-09-05T00:54:04.991Z,19.10
2023-09-05T00:59:12.292Z,19.00
2023-09-05T01:04:16.492Z,19.00
2023-09-05T01:09:31.848Z,19.00
2023-09-05T01:14:37.273Z,19.00
2023-09-05T01:19:42.560Z,18.90
2023-09-05T01:24:51.352Z,18.90
2023-09-05T01:29:56.968Z,18.80
2023-09-05T01:35:01.310Z,18.80
2023-09-05T01:40:08.485Z,18.80
2023-09-05T01:45:12.743Z,18.70
2023-09-05T01:50:16.859Z,18.80
2023-09-05T01:55:22.258Z,18.70
2023-09-05T02:00:26.367Z,18.70
2023-09-05T02:05:30.384Z,18.60
2023-09-05T02:10:35.788Z,18.60
2023-09-05T02:15:39.813Z,18.60
2023-09-05T02:20:43.982Z,18.60
2023-09-05T02:26:00.602Z,18.60
2023-09-05T02:31:07.753Z,18.50
2023-09-05T02:36:16.859Z,18.50
2023-09-05T02:41:22.467Z,18.50
2023-09-05T02:46:26.884Z,18.40
2023-09-05T02:51:31.016Z,18.40
2023-09-05T02:56:36.423Z,18.40
2023-09-05T03:01:40.663Z,18.30
2023-09-05T03:06:44.717Z,18.30
2023-09-05T03:11:51.435Z,18.30
2023-09-05T03:16:56.070Z,18.30
2023-09-05T03:22:00.636Z,18.30
2023-09-05T03:27:06.667Z,18.20
2023-09-05T03:32:11.312Z,18.20
2023-09-05T03:37:15.393Z,18.20
2023-09-05T03:42:20.999Z,18.20
2023-09-05T03:47:25.008Z,18.20
2023-09-05T03:52:28.955Z,18.10
2023-09-05T03:57:34.352Z,18.10
2023-09-05T04:02:38.525Z,18.10
2023-09-05T04:07:45.042Z,18.10
2023-09-05T04:12:52.443Z,18.10
2023-09-05T04:17:56.577Z,18.10
2023-09-05T04:23:00.623Z,18.10
2023-09-05T04:28:07.073Z,18.10
2023-09-05T04:33:12.422Z,18.00
2023-09-05T04:38:16.570Z,18.00
2023-09-05T04:43:22.281Z,18.00
2023-09-05T04:48:27.095Z,18.00
2023-09-05T04:53:31.479Z,17.90
2023-09-05T04:58:36.859Z,17.90
2023-09-05T05:03:41.230Z,17.90
2023-09-05T05:08:45.443Z,17.90
2023-09-05T05:13:51.106Z,17.90
2023-09-05T05:18:55.107Z,17.90
2023-09-05T05:23:59.143Z,17.80
2023-09-05T05:29:04.795Z,17.80
2023-09-05T05:34:08.994Z,17.80
2023-09-05T05:39:14.434Z,17.80
2023-09-05T05:44:19.798Z,17.80
2023-09-05T05:49:24.262Z,17.80
2023-09-05T05:54:28.845Z,17.80
2023-09-05T05:59:34.293Z,17.80
2023-09-05T06:04:38.423Z,17.80
2023-09-05T06:09:42.566Z,17.80
2023-09-05T06:14:48.291Z,17.80
2023-09-05T06:19:52.472Z,17.80
2023-09-05T06:24:56.547Z,17.90
2023-09-05T06:30:01.936Z,17.90
2023-09-05T06:35:06.975Z,17.90
2023-09-05T06:40:16.553Z,17.90
2023-09-05T06:45:22.415Z,18.00
2023-09-05T06:50:26.497Z,18.00
2023-09-05T06:55:35.866Z,18.00
2023-09-05T07:00:41.350Z,18.10
2023-09-05T07:05:59.936Z,18.20
2023-09-05T07:11:09.444Z,18.20
2023-09-05T07:16:14.871Z,18.20
2023-09-05T07:21:18.938Z,18.30
2023-09-05T07:26:23.092Z,18.30
2023-09-05T07:31:32.590Z,18.40
2023-09-05T07:36:40.787Z,18.60
2023-09-05T07:41:44.784Z,18.60
2023-09-05T07:46:50.156Z,18.70
2023-09-05T07:51:55.323Z,18.80
2023-09-05T07:56:59.745Z,18.90
2023-09-05T08:02:05.723Z,19.00
2023-09-05T08:07:09.798Z,19.20
2023-09-05T08:12:14.472Z,19.30
2023-09-05T08:17:20.056Z,19.40
2023-09-05T08:22:24.163Z,19.60
2023-09-05T08:27:30.555Z,19.70
2023-09-05T08:32:36.364Z,19.80
2023-09-05T08:37:40.594Z,20.00
2023-09-05T08:42:44.897Z,20.20
2023-09-05T08:47:50.453Z,20.50
2023-09-05T08:52:57.483Z,20.70
2023-09-05T08:58:02.887Z,21.00
2023-09-05T09:03:08.809Z,21.40
2023-09-05T09:08:13.008Z,21.80
2023-09-05T09:13:20.043Z,22.40
2023-09-05T09:18:28.406Z,23.50
2023-09-05T09:23:36.413Z,24.90
2023-09-05T09:28:41.257Z,26.40
2023-09-05T09:33:56.780Z,27.50
2023-09-05T09:39:08.834Z,28.30
2023-09-05T09:44:26.423Z,28.90
2023-09-05T09:49:33.621Z,29.50
2023-09-05T09:54:40.469Z,30.00
2023-09-05T09:59:51.735Z,30.20
2023-09-05T10:04:58.749Z,30.40
2023-09-05T10:10:03.630Z,30.50
2023-09-05T10:15:11.892Z,30.60
2023-09-05T10:20:22.724Z,30.60
2023-09-05T10:25:29.697Z,30.70
2023-09-05T10:30:43.029Z,30.80
2023-09-05T10:35:48.468Z,30.80
2023-09-05T10:40:52.533Z,30.80
2023-09-05T10:45:58.715Z,30.80
2023-09-05T10:51:12.787Z,30.80
2023-09-05T10:56:41.307Z,30.80
2023-09-05T11:01:58.221Z,30.90
2023-09-05T11:07:14.768Z,30.90
2023-09-05T11:12:20.136Z,30.90
2023-09-05T11:17:24.842Z,31.00
2023-09-05T11:22:30.412Z,31.00
2023-09-05T11:27:35.070Z,31.00
2023-09-05T11:32:40.939Z,31.00
2023-09-05T11:37:59.838Z,30.90
2023-09-05T11:43:05.601Z,30.90
2023-09-05T11:48:12.908Z,30.90
2023-09-05T11:53:21.434Z,30.80
2023-09-05T11:58:27.571Z,30.80
2023-09-05T12:03:32.797Z,30.80
2023-09-05T12:08:38.615Z,30.90
2023-09-05T12:13:45.163Z,30.90
2023-09-05T12:18:50.907Z,30.90
2023-09-05T12:23:56.863Z,31.00
2023-09-05T12:29:00.843Z,30.90
2023-09-05T12:34:04.884Z,30.80
2023-09-05T12:39:10.301Z,30.80
2023-09-05T12:44:14.374Z,30.80
2023-09-05T12:49:18.750Z,30.80
2023-09-05T12:54:24.280Z,30.80
2023-09-05T12:59:28.997Z,30.70
2023-09-05T13:04:33.156Z,30.70
2023-09-05T13:09:38.523Z,30.60
2023-09-05T13:14:43.974Z,30.60
2023-09-05T13:19:48.457Z,30.50
2023-09-05T13:24:53.873Z,30.40
2023-09-05T13:29:58.164Z,30.30
2023-09-05T13:35:02.885Z,30.20
2023-09-05T13:40:10.417Z,30.20
2023-09-05T13:45:14.605Z,30.10
2023-09-05T13:50:22.231Z,30.00
2023-09-05T13:55:28.919Z,29.90
2023-09-05T14:00:34.276Z,29.80
2023-09-05T14:05:38.944Z,29.70
2023-09-05T14:10:47.585Z,29.60
2023-09-05T14:15:51.816Z,29.50
2023-09-05T14:20:55.857Z,29.40
2023-09-05T14:26:01.369Z,29.30
2023-09-05T14:31:05.492Z,29.20
2023-09-05T14:36:11.344Z,29.20
2023-09-05T14:41:16.884Z,29.10
2023-09-05T14:46:20.958Z,29.00
2023-09-05T14:51:25.330Z,28.90
2023-09-05T14:56:31.590Z,28.90
2023-09-05T15:01:35.751Z,28.90
2023-09-05T15:06:40.168Z,28.80
2023-09-05T15:11:45.665Z,28.80
2023-09-05T15:16:49.854Z,28.70
2023-09-05T15:21:54.036Z,28.70
2023-09-05T15:26:59.838Z,28.70
2023-09-05T15:32:04.194Z,28.60
2023-09-05T15:37:08.329Z,28.60
2023-09-05T15:42:14.636Z,28.60
2023-09-05T15:47:18.709Z,28.50
2023-09-05T15:52:23.144Z,28.50
2023-09-05T15:57:28.666Z,28.50
2023-09-05T16:02:32.959Z,28.50
2023-09-05T16:07:37.055Z,28.50
2023-09-05T16:12:42.523Z,28.40
2023-09-05T16:17:46.690Z,28.30
2023-09-05T16:22:52.807Z,28.20
2023-09-05T16:27:58.438Z,28.20
2023-09-05T16:33:02.640Z,28.10
2023-09-05T16:38:07.248Z,28.00
2023-09-05T16:43:12.742Z,28.00
2023-09-05T16:48:16.949Z,27.80
2023-09-05T16:53:21.040Z,27.80
2023-09-05T16:58:26.697Z,27.70
2023-09-05T17:03:31.532Z,27.60
2023-09-05T17:08:35.637Z,27.60
2023-09-05T17:13:42.055Z,27.50
2023-09-05T17:18:46.804Z,27.40
2023-09-05T17:23:52.263Z,27.30
2023-09-05T17:28:57.722Z,27.20
2023-09-05T17:34:02.322Z,27.10
2023-09-05T17:39:08.449Z,27.00
2023-09-05T17:44:13.846Z,26.90
2023-09-05T17:49:19.999Z,26.80
2023-09-05T17:54:24.146Z,26.80
2023-09-05T17:59:29.531Z,26.70
2023-09-05T18:04:34.549Z,26.60
2023-09-05T18:09:38.972Z,26.50
2023-09-05T18:14:44.584Z,26.40
2023-09-05T18:19:48.842Z,26.30
2023-09-05T18:24:53.157Z,26.20
2023-09-05T18:29:59.742Z,26.10
2023-09-05T18:35:03.970Z,26.00
2023-09-05T18:40:09.538Z,25.90
2023-09-05T18:45:15.138Z,25.80
2023-09-05T18:50:20.569Z,25.60
2023-09-05T18:55:24.740Z,25.60
2023-09-05T19:00:30.323Z,25.50
2023-09-05T19:05:35.418Z,25.40
2023-09-05T19:10:39.898Z,25.30
2023-09-05T19:15:45.747Z,25.20
2023-09-05T19:20:55.673Z,25.20
2023-09-05T19:25:59.734Z,25.10
2023-09-05T19:31:05.147Z,25.00
2023-09-05T19:36:09.454Z,24.90
2023-09-05T19:41:15.049Z,24.80
2023-09-05T19:46:23.431Z,24.80
2023-09-05T19:51:27.632Z,24.70
2023-09-05T19:56:31.859Z,24.70
2023-09-05T20:01:37.664Z,24.60
2023-09-05T20:06:41.856Z,24.60
2023-09-05T20:11:46.034Z,24.60
2023-09-05T20:16:51.573Z,24.50
2023-09-05T20:21:57.388Z,24.50
2023-09-05T20:27:01.553Z,24.50
2023-09-05T20:32:09.934Z,24.40
2023-09-05T20:37:13.979Z,24.40
2023-09-05T20:42:18.316Z,24.30
2023-09-05T20:47:24.419Z,24.20
2023-09-05T20:52:28.482Z,24.10
2023-09-05T20:57:32.505Z,24.10
2023-09-05T21:02:38.019Z,24.00
2023-09-05T21:07:44.935Z,24.00
2023-09-05T21:12:49.236Z,23.90
2023-09-05T21:17:54.756Z,23.80
2023-09-05T21:22:59.527Z,23.70
2023-09-05T21:28:03.526Z,23.70
2023-09-05T21:33:09.078Z,23.60
2023-09-05T21:38:13.095Z,23.50
2023-09-05T21:43:17.491Z,23.50
2023-09-05T21:48:23.115Z,23.40
2023-09-05T21:53:27.137Z,23.40
2023-09-05T21:58:31.244Z,23.30
2023-09-05T22:03:36.689Z,23.30
2023-09-05T22:08:43.743Z,23.30
2023-09-05T22:13:47.825Z,23.20
2023-09-05T22:18:54.863Z,23.20
2023-09-05T22:24:00.941Z,23.20
2023-09-05T22:29:08.514Z,23.20
2023-09-05T22:34:14.934Z,23.10
2023-09-05T22:39:19.761Z,23.10
2023-09-05T22:44:26.273Z,23.00
2023-09-05T22:49:31.772Z,23.00
2023-09-05T22:54:35.900Z,22.90
2023-09-05T22:59:40.035Z,22.90
2023-09-05T23:04:45.813Z,22.80
2023-09-05T23:09:51.459Z,22.80
2023-09-05T23:14:55.948Z,22.70
2023-09-05T23:20:02.098Z,22.70
2023-09-05T23:25:07.527Z,22.60
2023-09-05T23:30:14.131Z,22.60
2023-09-05T23:35:19.564Z,22.60
2023-09-05T23:40:23.502Z,22.50
2023-09-05T23:45:27.688Z,22.50
2023-09-05T23:50:33.105Z,22.40
2023-09-05T23:55:37.331Z,22.40
